sensor_id;sensor_type;location;lat;lon;timestamp;P1;durP1;ratioP1;P2;durP2;ratioP2
26838;SDS011;40088;51.214;6.786;2024-03-23T00:56:55;13.40;;;8.35;;
26838;SDS011;40088;51.214;6.786;2024-03-23T01:06:55;14.32;;;8.30;;
26838;SDS011;40088;51.214;6.786;2024-03-23T01:16:55;14.00;;;8.90;;
26838;SDS011;40088;51.214;6.786;2024-03-23T01:26:56;10.23;;;6.43;;
26838;SDS011;40088;51.214;6.786;2024-03-23T01:36:56;16.15;;;9.55;;
26838;SDS011;40088;51.214;6.786;2024-03-23T01:46:56;10.68;;;6.90;;
26838;SDS011;40088;51.214;6.786;2024-03-23T01:56:56;13.05;;;8.25;;
26838;SDS011;40088;51.214;6.786;2024-03-23T02:06:57;11.10;;;6.95;;
26838;SDS011;40088;51.214;6.786;2024-03-23T02:16:57;12.27;;;6.65;;
26838;SDS011;40088;51.214;6.786;2024-03-23T02:26:57;9.27;;;5.45;;
26838;SDS011;40088;51.214;6.786;2024-03-23T02:36:58;13.38;;;8.60;;
26838;SDS011;40088;51.214;6.786;2024-03-23T02:46:58;10.63;;;5.90;;
26838;SDS011;40088;51.214;6.786;2024-03-23T02:56:58;14.63;;;8.65;;
26838;SDS011;40088;51.214;6.786;2024-03-23T03:06:59;10.45;;;6.97;;
26838;SDS011;40088;51.214;6.786;2024-03-23T03:17:00;13.23;;;8.15;;
26838;SDS011;40088;51.214;6.786;2024-03-23T03:27:00;10.82;;;6.53;;
26838;SDS011;40088;51.214;6.786;2024-03-23T03:37:01;9.75;;;6.28;;
26838;SDS011;40088;51.214;6.786;2024-03-23T03:47:01;10.90;;;6.72;;
26838;SDS011;40088;51.214;6.786;2024-03-23T03:57:01;10.57;;;6.30;;
26838;SDS011;40088;51.214;6.786;2024-03-23T04:07:02;10.88;;;6.68;;
26838;SDS011;40088;51.214;6.786;2024-03-23T04:17:02;12.95;;;7.32;;
26838;SDS011;40088;51.214;6.786;2024-03-23T04:27:03;16.48;;;10.15;;
26838;SDS011;40088;51.214;6.786;2024-03-23T04:37:03;7.93;;;5.57;;
26838;SDS011;40088;51.214;6.786;2024-03-23T04:47:04;10.40;;;6.10;;
26838;SDS011;40088;51.214;6.786;2024-03-23T04:57:05;9.20;;;5.97;;
26838;SDS011;40088;51.214;6.786;2024-03-23T05:07:06;11.60;;;6.73;;
26838;SDS011;40088;51.214;6.786;2024-03-23T05:17:06;10.18;;;6.18;;
26838;SDS011;40088;51.214;6.786;2024-03-23T05:27:07;11.68;;;7.03;;
26838;SDS011;40088;51.214;6.786;2024-03-23T05:37:07;13.07;;;6.93;;
26838;SDS011;40088;51.214;6.786;2024-03-23T05:47:07;11.18;;;7.47;;
26838;SDS011;40088;51.214;6.786;2024-03-23T05:57:08;12.25;;;7.32;;
26838;SDS011;40088;51.214;6.786;2024-03-23T06:07:09;10.48;;;6.18;;
26838;SDS011;40088;51.214;6.786;2024-03-23T06:17:13;8.77;;;4.78;;
26838;SDS011;40088;51.214;6.786;2024-03-23T06:27:14;10.32;;;6.60;;
26838;SDS011;40088;51.214;6.786;2024-03-23T06:37:14;13.63;;;6.85;;
26838;SDS011;40088;51.214;6.786;2024-03-23T06:47:14;14.25;;;7.50;;
26838;SDS011;40088;51.214;6.786;2024-03-23T06:57:14;12.48;;;7.40;;
26838;SDS011;40088;51.214;6.786;2024-03-23T07:07:15;10.52;;;6.80;;
26838;SDS011;40088;51.214;6.786;2024-03-23T07:17:15;8.55;;;5.00;;
26838;SDS011;40088;51.214;6.786;2024-03-23T07:27:15;10.52;;;6.38;;
26838;SDS011;40088;51.214;6.786;2024-03-23T07:37:16;12.20;;;6.38;;
26838;SDS011;40088;51.214;6.786;2024-03-23T07:47:16;12.30;;;6.30;;
26838;SDS011;40088;51.214;6.786;2024-03-23T07:57:16;10.95;;;6.30;;
26838;SDS011;40088;51.214;6.786;2024-03-23T08:07:16;10.63;;;6.90;;
26838;SDS011;40088;51.214;6.786;2024-03-23T08:17:17;12.35;;;6.60;;
26838;SDS011;40088;51.214;6.786;2024-03-23T08:27:17;11.25;;;6.57;;
26838;SDS011;40088;51.214;6.786;2024-03-23T08:37:17;13.98;;;9.00;;
26838;SDS011;40088;51.214;6.786;2024-03-23T08:47:17;12.25;;;7.40;;
26838;SDS011;40088;51.214;6.786;2024-03-23T08:57:18;10.55;;;6.88;;
26838;SDS011;40088;51.214;6.786;2024-03-23T09:07:18;9.85;;;4.95;;
26838;SDS011;40088;51.214;6.786;2024-03-23T09:17:18;13.00;;;3.88;;
26838;SDS011;40088;51.214;6.786;2024-03-23T09:27:20;7.63;;;3.85;;
26838;SDS011;40088;51.214;6.786;2024-03-23T09:37:20;6.68;;;3.28;;
26838;SDS011;40088;51.214;6.786;2024-03-23T09:47:20;8.25;;;3.50;;
26838;SDS011;40088;51.214;6.786;2024-03-23T09:57:20;9.93;;;3.72;;
26838;SDS011;40088;51.214;6.786;2024-03-23T10:07:21;8.38;;;5.18;;
26838;SDS011;40088;51.214;6.786;2024-03-23T10:17:25;6.93;;;3.20;;
26838;SDS011;40088;51.214;6.786;2024-03-23T10:27:25;7.70;;;3.10;;
26838;SDS011;40088;51.214;6.786;2024-03-23T10:37:26;8.23;;;4.45;;
26838;SDS011;40088;51.214;6.786;2024-03-23T10:47:26;7.22;;;4.00;;
26838;SDS011;40088;51.214;6.786;2024-03-23T10:57:31;6.75;;;3.35;;
26838;SDS011;40088;51.214;6.786;2024-03-23T11:07:37;6.55;;;3.70;;
26838;SDS011;40088;51.214;6.786;2024-03-23T11:17:38;7.57;;;2.40;;
26838;SDS011;40088;51.214;6.786;2024-03-23T11:27:38;5.55;;;3.42;;
26838;SDS011;40088;51.214;6.786;2024-03-23T11:37:38;4.97;;;2.83;;
26838;SDS011;40088;51.214;6.786;2024-03-23T11:47:39;5.50;;;3.00;;
26838;SDS011;40088;51.214;6.786;2024-03-23T11:57:39;4.95;;;2.80;;
26838;SDS011;40088;51.214;6.786;2024-03-23T12:07:39;8.65;;;2.67;;
26838;SDS011;40088;51.214;6.786;2024-03-23T12:17:40;3.53;;;2.15;;
26838;SDS011;40088;51.214;6.786;2024-03-23T12:27:41;3.25;;;2.30;;
26838;SDS011;40088;51.214;6.786;2024-03-23T12:37:41;3.17;;;2.08;;
26838;SDS011;40088;51.214;6.786;2024-03-23T12:47:41;8.50;;;2.35;;
26838;SDS011;40088;51.214;6.786;2024-03-23T12:57:42;4.15;;;2.33;;
26838;SDS011;40088;51.214;6.786;2024-03-23T13:07:42;5.05;;;1.73;;
26838;SDS011;40088;51.214;6.786;2024-03-23T13:17:42;4.47;;;1.85;;
26838;SDS011;40088;51.214;6.786;2024-03-23T13:27:42;3.13;;;1.50;;
26838;SDS011;40088;51.214;6.786;2024-03-23T13:37:43;2.47;;;1.30;;
26838;SDS011;40088;51.214;6.786;2024-03-23T13:47:43;6.53;;;1.80;;
26838;SDS011;40088;51.214;6.786;2024-03-23T13:57:44;2.70;;;1.30;;
26838;SDS011;40088;51.214;6.786;2024-03-23T14:07:44;4.15;;;1.70;;
26838;SDS011;40088;51.214;6.786;2024-03-23T14:17:44;5.18;;;1.52;;
26838;SDS011;40088;51.214;6.786;2024-03-23T14:27:45;5.43;;;2.58;;
26838;SDS011;40088;51.214;6.786;2024-03-23T14:37:45;3.03;;;1.50;;
26838;SDS011;40088;51.214;6.786;2024-03-23T14:47:47;3.50;;;1.80;;
26838;SDS011;40088;51.214;6.786;2024-03-23T14:57:47;3.80;;;2.33;;
26838;SDS011;40088;51.214;6.786;2024-03-23T15:07:48;4.03;;;1.60;;
26838;SDS011;40088;51.214;6.786;2024-03-23T15:17:48;5.18;;;2.00;;
26838;SDS011;40088;51.214;6.786;2024-03-23T15:27:48;3.55;;;1.75;;
26838;SDS011;40088;51.214;6.786;2024-03-23T15:37:49;5.80;;;1.98;;
26838;SDS011;40088;51.214;6.786;2024-03-23T15:47:50;3.85;;;2.30;;
26838;SDS011;40088;51.214;6.786;2024-03-23T15:57:50;3.13;;;1.70;;
26838;SDS011;40088;51.214;6.786;2024-03-23T16:07:51;4.90;;;1.85;;
26838;SDS011;40088;51.214;6.786;2024-03-23T16:17:51;2.88;;;1.77;;
26838;SDS011;40088;51.214;6.786;2024-03-23T16:27:51;4.07;;;2.10;;
26838;SDS011;40088;51.214;6.786;2024-03-23T16:37:52;4.38;;;1.80;;
26838;SDS011;40088;51.214;6.786;2024-03-23T16:47:53;2.78;;;1.48;;
26838;SDS011;40088;51.214;6.786;2024-03-23T16:57:53;2.95;;;1.70;;
26838;SDS011;40088;51.214;6.786;2024-03-23T17:07:53;3.13;;;2.10;;
26838;SDS011;40088;51.214;6.786;2024-03-23T17:17:56;3.22;;;1.50;;
26838;SDS011;40088;51.214;6.786;2024-03-23T17:27:57;4.45;;;1.60;;
26838;SDS011;40088;51.214;6.786;2024-03-23T17:37:57;4.75;;;2.13;;
26838;SDS011;40088;51.214;6.786;2024-03-23T17:47:57;4.30;;;1.83;;
26838;SDS011;40088;51.214;6.786;2024-03-23T17:57:58;3.85;;;1.88;;
26838;SDS011;40088;51.214;6.786;2024-03-23T18:08:00;2.70;;;2.00;;
26838;SDS011;40088;51.214;6.786;2024-03-23T18:18:01;4.82;;;3.85;;
26838;SDS011;40088;51.214;6.786;2024-03-23T18:28:01;3.70;;;1.90;;
26838;SDS011;40088;51.214;6.786;2024-03-23T18:38:01;4.63;;;3.13;;
26838;SDS011;40088;51.214;6.786;2024-03-23T18:48:01;6.10;;;2.40;;
26838;SDS011;40088;51.214;6.786;2024-03-23T18:58:02;3.72;;;2.03;;
26838;SDS011;40088;51.214;6.786;2024-03-23T19:08:03;3.05;;;2.10;;
26838;SDS011;40088;51.214;6.786;2024-03-23T19:18:03;5.30;;;3.85;;
26838;SDS011;40088;51.214;6.786;2024-03-23T19:28:04;4.00;;;2.38;;
26838;SDS011;40088;51.214;6.786;2024-03-23T19:38:05;5.40;;;3.22;;
26838;SDS011;40088;51.214;6.786;2024-03-23T19:48:06;3.60;;;2.20;;
26838;SDS011;40088;51.214;6.786;2024-03-23T19:58:09;4.80;;;2.78;;
26838;SDS011;40088;51.214;6.786;2024-03-23T20:08:09;4.70;;;3.88;;
26838;SDS011;40088;51.214;6.786;2024-03-23T20:18:09;6.38;;;3.28;;
26838;SDS011;40088;51.214;6.786;2024-03-23T20:28:10;6.60;;;3.50;;
26838;SDS011;40088;51.214;6.786;2024-03-23T20:38:10;4.90;;;3.63;;
26838;SDS011;40088;51.214;6.786;2024-03-23T20:48:10;9.68;;;5.38;;
26838;SDS011;40088;51.214;6.786;2024-03-23T20:58:12;6.90;;;4.20;;
26838;SDS011;40088;51.214;6.786;2024-03-23T21:08:13;7.43;;;4.30;;
26838;SDS011;40088;51.214;6.786;2024-03-23T21:18:13;5.95;;;3.88;;
26838;SDS011;40088;51.214;6.786;2024-03-23T21:28:14;6.63;;;4.32;;
26838;SDS011;40088;51.214;6.786;2024-03-23T21:38:14;6.28;;;3.58;;
26838;SDS011;40088;51.214;6.786;2024-03-23T21:48:14;4.57;;;3.10;;
26838;SDS011;40088;51.214;6.786;2024-03-23T21:58:15;4.82;;;3.13;;
26838;SDS011;40088;51.214;6.786;2024-03-23T22:08:15;5.70;;;3.53;;
26838;SDS011;40088;51.214;6.786;2024-03-23T22:18:16;4.78;;;3.05;;
26838;SDS011;40088;51.214;6.786;2024-03-23T22:28:16;5.68;;;4.15;;
26838;SDS011;40088;51.214;6.786;2024-03-23T22:38:18;6.65;;;3.50;;
26838;SDS011;40088;51.214;6.786;2024-03-23T22:48:18;4.07;;;2.78;;
26838;SDS011;40088;51.214;6.786;2024-03-23T22:58:19;7.03;;;3.28;;
26838;SDS011;40088;51.214;6.786;2024-03-23T23:08:19;3.80;;;2.38;;
26838;SDS011;40088;51.214;6.786;2024-03-23T23:18:20;6.38;;;2.95;;
26838;SDS011;40088;51.214;6.786;2024-03-23T23:28:20;3.92;;;2.35;;
26838;SDS011;40088;51.214;6.786;2024-03-23T23:38:20;4.18;;;2.78;;
26838;SDS011;40088;51.214;6.786;2024-03-23T23:48:22;6.18;;;3.47;;
26838;SDS011;40088;51.214;6.786;2024-03-23T23:58:23;4.53;;;3.85;;
